createdAt,value
2019-05-19T10:12:24.316Z,991.97
2019-05-19T10:13:22.852Z,992
2019-05-19T10:14:21.563Z,991.97
2019-05-19T10:15:20.311Z,991.99
2019-05-19T10:16:18.933Z,991.99
2019-05-19T10:18:59.565Z,991.93
2019-05-19T10:19:58.155Z,991.95
2019-05-19T10:47:01.931Z,991.88
2019-05-19T10:48:00.539Z,991.83
2019-05-19T10:48:59.241Z,991.86
2019-05-19T10:49:57.965Z,991.84
2019-05-19T10:52:38.168Z,991.9
2019-05-19T10:53:36.785Z,991.91
2019-05-19T10:54:35.402Z,991.89
2019-05-19T10:55:36.348Z,991.89
2019-05-19T10:58:14.270Z,991.88
2019-05-19T10:59:12.906Z,991.87
2019-05-19T11:01:53.727Z,991.89
2019-05-19T11:02:53.096Z,991.89
2019-05-19T11:03:51.920Z,991.91
2019-05-19T11:04:50.595Z,991.85
2019-05-19T11:05:49.169Z,991.88
2019-05-19T11:06:47.893Z,991.92
2019-05-19T11:07:46.515Z,991.88
2019-05-19T11:08:45.195Z,991.93
2019-05-19T11:09:44.294Z,991.88
2019-05-19T11:10:42.877Z,991.89
2019-05-19T11:11:41.781Z,991.9
2019-05-19T11:12:40.275Z,991.84
2019-05-19T11:13:39.852Z,991.81
2019-05-19T11:16:20.091Z,991.82
2019-05-19T11:17:18.752Z,991.82
2019-05-19T11:18:17.349Z,991.81
2019-05-19T11:19:16.003Z,991.81
2019-05-19T11:20:14.719Z,991.86
2019-05-19T11:46:22.428Z,991.6
2019-05-19T11:49:02.857Z,991.61
2019-05-19T11:53:24.807Z,991.66
2019-05-19T11:54:23.562Z,991.65
2019-05-19T11:58:03.213Z,991.59
2019-05-19T11:59:01.259Z,991.63
2019-05-19T12:02:40.300Z,991.61
2019-05-19T12:08:00.815Z,991.62
2019-05-19T12:12:22.832Z,991.59
2019-05-19T12:19:25.018Z,991.48
2019-05-19T12:20:23.700Z,991.45
2019-05-19T12:21:22.426Z,991.42
2019-05-19T12:22:21.083Z,991.44
2019-05-19T12:23:19.693Z,991.45
2019-05-19T12:24:18.245Z,991.42
2019-05-19T12:25:16.813Z,991.43
2019-05-19T12:26:22.992Z,991.4
2019-05-19T12:27:14.804Z,991.41
2019-05-19T12:28:13.377Z,991.43
2019-05-19T12:29:12.011Z,991.4
2019-05-19T12:31:09.374Z,991.38
2019-05-19T12:32:08.306Z,991.41
2019-05-19T12:33:07.015Z,991.37
2019-05-19T12:34:05.585Z,991.39
2019-05-19T12:35:04.328Z,991.38
2019-05-19T12:36:03.103Z,991.37
2019-05-19T12:37:01.674Z,991.34
2019-05-19T12:38:00.385Z,991.32
2019-05-19T12:38:59.014Z,991.31
2019-05-19T12:40:56.436Z,991.29
2019-05-19T12:41:55.084Z,991.29
2019-05-19T12:42:53.940Z,991.27
2019-05-19T12:43:52.500Z,991.26
2019-05-19T12:44:51.151Z,991.25
2019-05-19T12:45:50.444Z,991.23
2019-05-19T12:46:49.192Z,991.25
2019-05-19T12:47:48.039Z,991.24
2019-05-19T12:48:48.059Z,991.23
2019-05-19T12:49:48.045Z,991.2
2019-05-19T12:50:46.898Z,991.23
2019-05-19T12:51:45.540Z,991.16
2019-05-19T12:52:44.867Z,991.21
2019-05-19T12:53:43.904Z,991.11
2019-05-19T12:54:42.547Z,991.08
2019-05-19T12:55:41.210Z,991.06
2019-05-19T12:56:40.375Z,991.07
2019-05-19T12:57:38.775Z,991.06
2019-05-19T12:58:38.916Z,991.04
2019-05-19T12:59:37.550Z,991
2019-05-19T13:00:36.164Z,991.05
2019-05-19T13:01:34.926Z,991.04
2019-05-19T13:02:33.621Z,991
2019-05-19T13:03:32.949Z,990.97
2019-05-19T13:04:31.391Z,991.02
2019-05-19T13:05:31.772Z,991
2019-05-19T13:06:30.662Z,991.05
2019-05-19T13:07:29.701Z,990.95
2019-05-19T13:08:28.520Z,991.03
2019-05-19T13:09:29.500Z,990.98
2019-05-19T13:14:57.213Z,990.94
2019-05-19T13:16:27.948Z,990.93
2019-05-19T13:19:07.841Z,990.89
2019-05-19T13:24:00.718Z,990.82
2019-05-19T13:26:55.457Z,990.82
2019-05-19T13:34:33.678Z,990.7
2019-05-19T13:46:25.805Z,990.67
2019-05-19T13:52:16.349Z,990.57
2019-05-19T13:53:16.755Z,990.6
2019-05-19T13:55:57.181Z,990.54
2019-05-19T13:57:09.942Z,990.58
2019-05-19T13:57:54.839Z,990.56
2019-05-19T13:58:53.541Z,990.56
2019-05-19T14:03:25.692Z,990.6
2019-05-19T14:04:24.312Z,990.54
2019-05-19T14:05:23.035Z,990.62
2019-05-19T14:06:21.715Z,990.59
2019-05-19T14:07:20.598Z,990.61
2019-05-19T14:08:19.181Z,990.57
2019-05-19T14:09:17.869Z,990.57
2019-05-19T14:10:16.628Z,990.56
2019-05-19T14:11:15.270Z,990.56
2019-05-19T14:12:13.889Z,990.53
2019-05-19T14:13:12.771Z,990.56
2019-05-19T14:14:11.377Z,990.54
2019-05-19T14:15:10.084Z,990.59
2019-05-19T14:16:08.740Z,990.57
2019-05-19T14:17:07.436Z,990.58
2019-05-19T14:18:06.275Z,990.57
2019-05-19T14:19:04.925Z,990.58
2019-05-19T14:20:03.781Z,990.54
2019-05-19T14:22:44.361Z,990.47
2019-05-19T14:26:23.628Z,990.43
2019-05-19T14:28:57.643Z,990.41
2019-05-19T14:29:56.488Z,990.42
2019-05-19T14:30:56.015Z,990.38
2019-05-19T14:31:54.683Z,990.4
2019-05-19T14:34:34.986Z,990.38
2019-05-19T14:35:33.695Z,990.36
2019-05-19T14:36:32.397Z,990.39
2019-05-19T14:37:31.073Z,990.37
2019-05-19T14:38:29.705Z,990.3
2019-05-19T14:39:28.722Z,990.33
2019-05-19T14:45:33.411Z,990.24
2019-05-19T14:48:13.549Z,990.24
2019-05-19T14:49:12.223Z,990.26
2019-05-19T14:50:11.391Z,990.23
2019-05-19T14:51:10.267Z,990.18
2019-05-19T14:54:03.765Z,990.24
2019-05-19T14:55:03.215Z,990.21
2019-05-19T14:56:02.919Z,990.16
2019-05-19T14:57:01.807Z,990.18
2019-05-19T14:58:00.933Z,990.19
2019-05-19T14:59:00.485Z,990.23
2019-05-19T15:00:00.148Z,990.19
2019-05-19T15:03:30.711Z,990.1
2019-05-19T15:05:58.075Z,990.13
2019-05-19T15:06:57.358Z,990.07
2019-05-19T15:09:40.347Z,990.1
2019-05-19T15:11:48.844Z,990.13
2019-05-19T15:14:30.603Z,990.14
2019-05-19T15:15:34.629Z,990.14
2019-05-19T15:19:03.060Z,990.11
2019-05-19T15:20:02.011Z,990.12
2019-05-19T15:21:01.499Z,990.1
2019-05-19T15:22:00.896Z,990.09
2019-05-19T15:22:59.939Z,990.09
2019-05-19T15:24:00.435Z,990.14
2019-05-19T15:24:59.637Z,990.15
2019-05-19T15:26:00.189Z,990.12
2019-05-19T15:27:00.309Z,990.09
2019-05-19T15:28:01.519Z,990.09
2019-05-19T15:28:58.741Z,990.11
2019-05-19T15:30:11.749Z,990.11
2019-05-19T15:30:57.261Z,990.12
2019-05-19T15:31:58.220Z,990.14
2019-05-19T15:32:57.480Z,990.15
2019-05-19T15:33:56.793Z,990.14
2019-05-19T15:36:17.842Z,990.1
2019-05-19T15:37:17.656Z,990.09
2019-05-19T15:38:18.931Z,990.09
2019-05-19T15:39:18.023Z,990.08
2019-05-19T15:40:17.626Z,990.07
2019-05-19T15:41:17.065Z,990.11
2019-05-19T15:42:17.371Z,990.1
2019-05-19T15:43:17.890Z,990.13
2019-05-19T15:44:18.719Z,990.17
2019-05-19T15:46:27.461Z,990.18
2019-05-19T15:47:27.264Z,990.19
2019-05-19T15:48:26.772Z,990.23
2019-05-19T15:49:29.534Z,990.22
2019-05-19T15:50:29.125Z,990.29
2019-05-19T15:51:36.243Z,990.3
2019-05-19T15:52:30.342Z,990.29
2019-05-19T15:56:19.110Z,990.25
2019-05-19T15:57:17.788Z,990.23
2019-05-19T15:58:17.324Z,990.25
2019-05-19T15:59:16.302Z,990.23
2019-05-19T16:00:16.721Z,990.33
2019-05-19T16:01:15.387Z,990.21
2019-05-19T16:02:14.175Z,990.25
2019-05-19T16:03:12.804Z,990.15
2019-05-19T16:04:12.185Z,990.18
2019-05-19T16:05:11.376Z,990.15
2019-05-19T16:06:10.186Z,990.17
2019-05-19T16:07:08.764Z,990.08
2019-05-19T16:08:07.846Z,990.1
2019-05-19T16:09:06.640Z,990.11
2019-05-19T16:10:05.343Z,990.1
2019-05-19T16:11:03.952Z,990.1
2019-05-19T16:12:02.851Z,990.06
2019-05-19T16:13:01.644Z,990.03
2019-05-19T16:14:01.334Z,990.06
2019-05-19T16:15:00.001Z,990.03
2019-05-19T16:15:58.857Z,990.04
2019-05-19T16:16:57.545Z,990.02
2019-05-19T16:17:56.321Z,990.01
2019-05-19T16:20:38.765Z,990
2019-05-19T16:21:37.328Z,990.01
2019-05-19T16:22:36.171Z,990.02
2019-05-19T16:23:34.786Z,990.04
2019-05-19T16:24:33.418Z,990.07
2019-05-19T16:25:32.416Z,990.02
2019-05-19T16:26:31.237Z,990.03
2019-05-19T16:27:29.904Z,990.02
2019-05-19T16:28:30.471Z,990.01
2019-05-19T16:29:27.049Z,990.05
2019-05-19T16:30:25.902Z,990.03
2019-05-19T16:31:24.516Z,990.01
2019-05-19T16:32:23.165Z,990.03
2019-05-19T16:33:22.252Z,990.01
2019-05-19T16:34:21.329Z,990.03
2019-05-19T16:35:20.112Z,990.03
2019-05-19T16:36:18.784Z,990.02
2019-05-19T16:37:18.682Z,989.97
2019-05-19T16:38:17.289Z,990.01
2019-05-19T16:39:16.457Z,989.99
2019-05-19T16:41:57.030Z,989.97
2019-05-19T16:42:57.609Z,989.96
2019-05-19T17:10:33.352Z,990.05
2019-05-19T17:11:32.144Z,990.04
2019-05-19T17:12:30.860Z,990.02
2019-05-19T17:13:29.579Z,989.98
2019-05-19T17:14:28.375Z,989.97
2019-05-19T17:15:27.077Z,989.92
2019-05-19T17:16:26.062Z,989.93
2019-05-19T17:17:25.105Z,989.92
2019-05-19T17:18:23.691Z,989.97
2019-05-19T17:19:22.591Z,990.03
2019-05-19T17:20:21.162Z,990.02
2019-05-19T17:21:19.823Z,990.06
2019-05-19T17:25:00.388Z,990.09
2019-05-19T17:25:57.699Z,990.06
2019-05-19T17:26:56.535Z,990.09
2019-05-19T17:32:25.329Z,990.12
2019-05-19T17:34:48.179Z,990.18
2019-05-19T17:35:47.677Z,990.18
2019-05-19T17:36:45.588Z,990.17
2019-05-19T17:37:44.369Z,990.17
2019-05-19T17:38:43.065Z,990.17
2019-05-19T17:40:58.743Z,990.19
2019-05-19T17:43:38.981Z,990.15
2019-05-19T17:44:38.110Z,990.13
2019-05-19T17:45:39.827Z,990.16
2019-05-19T17:48:08.974Z,990.19
2019-05-19T17:48:54.142Z,990.16
2019-05-19T17:49:52.866Z,990.19
2019-05-19T17:50:51.868Z,990.17
2019-05-19T17:51:50.664Z,990.18
2019-05-19T17:52:49.945Z,990.16
2019-05-19T17:53:48.110Z,990.17
2019-05-19T17:54:46.785Z,990.19
2019-05-19T17:55:45.480Z,990.17
2019-05-19T17:56:44.272Z,990.18
2019-05-19T17:57:43.429Z,990.17
2019-05-19T17:58:41.844Z,990.2
2019-05-19T17:59:40.750Z,990.23
2019-05-19T18:00:39.447Z,990.22
2019-05-19T18:01:38.334Z,990.27
2019-05-19T18:02:37.136Z,990.27
2019-05-19T18:03:35.840Z,990.28
2019-05-19T18:04:35.543Z,990.28
2019-05-19T18:05:34.990Z,990.3
2019-05-19T18:06:33.766Z,990.26
2019-05-19T18:07:32.916Z,990.29
2019-05-19T18:08:31.649Z,990.32
2019-05-19T18:09:30.627Z,990.36
2019-05-19T18:10:29.727Z,990.37
2019-05-19T18:11:29.057Z,990.37
2019-05-19T18:12:28.460Z,990.34
2019-05-19T18:13:27.173Z,990.36
2019-05-19T18:14:26.060Z,990.37
2019-05-19T18:15:25.588Z,990.38
2019-05-19T18:16:24.361Z,990.33
2019-05-19T18:17:23.185Z,990.34
2019-05-19T18:18:22.033Z,990.33
2019-05-19T18:19:21.350Z,990.37
2019-05-19T18:20:23.613Z,990.36
2019-05-19T18:21:19.017Z,990.35
2019-05-19T18:22:17.723Z,990.35
2019-05-19T18:23:17.147Z,990.39
2019-05-19T18:24:15.966Z,990.34
2019-05-19T18:25:14.882Z,990.39
2019-05-19T18:26:14.030Z,990.39
2019-05-19T18:27:13.222Z,990.38
2019-05-19T18:28:11.859Z,990.41
2019-05-19T18:29:10.569Z,990.38
2019-05-19T18:30:09.354Z,990.4
2019-05-19T18:31:08.007Z,990.45
2019-05-19T18:32:06.988Z,990.41
2019-05-19T18:34:47.381Z,990.45
2019-05-19T18:35:46.135Z,990.38
2019-05-19T18:36:45.006Z,990.43
2019-05-19T18:37:43.678Z,990.44
2019-05-19T18:38:42.559Z,990.44
2019-05-19T18:39:41.345Z,990.43
2019-05-19T18:40:40.101Z,990.47
2019-05-19T18:41:38.962Z,990.45
2019-05-19T18:42:37.499Z,990.41
2019-05-19T18:43:36.439Z,990.39
2019-05-19T18:46:20.818Z,990.41
2019-05-19T18:47:19.511Z,990.39
2019-05-19T18:48:18.578Z,990.43
2019-05-19T18:55:11.614Z,990.34
2019-05-19T18:56:10.963Z,990.36
2019-05-19T18:57:10.078Z,990.38
2019-05-19T18:58:08.828Z,990.4
2019-05-19T18:59:09.025Z,990.41
2019-05-19T19:00:07.700Z,990.4
2019-05-19T19:03:21.536Z,990.44
2019-05-19T19:04:20.745Z,990.44
2019-05-19T19:05:20.009Z,990.42
2019-05-19T19:08:19.577Z,990.51
2019-05-19T19:09:18.743Z,990.51
2019-05-19T19:10:17.943Z,990.53
2019-05-19T19:11:16.987Z,990.53
2019-05-19T19:14:56.250Z,990.57
2019-05-19T19:15:55.140Z,990.53
2019-05-19T19:16:54.782Z,990.54
2019-05-19T19:17:54.117Z,990.54
2019-05-19T19:18:54.827Z,990.57
2019-05-19T19:19:53.751Z,990.54
2019-05-19T19:20:52.858Z,990.57
2019-05-19T19:21:52.523Z,990.56
2019-05-19T19:22:51.468Z,990.51
2019-05-19T19:23:51.939Z,990.52
2019-05-19T19:24:50.871Z,990.54
2019-05-19T19:27:31.415Z,990.6
2019-05-19T19:28:31.086Z,990.6
2019-05-19T19:29:30.858Z,990.64
2019-05-19T19:30:30.058Z,990.6
2019-05-19T19:31:29.221Z,990.66
2019-05-19T19:32:29.724Z,990.67
2019-05-19T19:33:30.289Z,990.65
2019-05-19T19:36:06.288Z,990.67
2019-05-19T19:37:05.687Z,990.72
2019-05-19T19:38:05.389Z,990.7
2019-05-19T19:39:04.166Z,990.69
2019-05-19T19:40:04.066Z,990.71
2019-05-19T19:41:04.348Z,990.68
2019-05-19T19:42:03.060Z,990.72
2019-05-19T19:43:01.830Z,990.69
2019-05-19T19:44:00.431Z,990.67
2019-05-19T19:44:59.187Z,990.66
2019-05-19T19:45:58.157Z,990.64
2019-05-19T19:46:57.791Z,990.66
2019-05-19T19:47:57.706Z,990.64
2019-05-19T19:48:57.409Z,990.66
2019-05-19T19:49:56.445Z,990.62
2019-05-19T19:50:55.674Z,990.63
2019-05-19T19:51:55.231Z,990.63
2019-05-19T19:52:55.096Z,990.67
2019-05-19T19:53:54.671Z,990.73
2019-05-19T19:54:53.044Z,990.74
2019-05-19T19:55:53.567Z,990.72
2019-05-19T19:56:52.105Z,990.75
2019-05-19T19:57:50.916Z,990.78
2019-05-19T19:58:50.915Z,990.78
2019-05-19T19:59:49.548Z,990.76
2019-05-19T20:00:49.188Z,990.8
2019-05-19T20:01:49.097Z,990.76
2019-05-19T20:02:47.801Z,990.76
2019-05-19T20:05:28.842Z,990.71
2019-05-19T20:06:28.229Z,990.75
2019-05-19T20:07:27.226Z,990.76
2019-05-19T20:08:26.908Z,990.73
2019-05-19T20:09:26.577Z,990.73
2019-05-19T20:10:27.048Z,990.75
2019-05-19T20:11:26.211Z,990.74
2019-05-19T20:12:26.509Z,990.81
2019-05-19T20:13:26.269Z,990.79
2019-05-19T20:14:25.763Z,990.79
2019-05-19T20:15:25.419Z,990.82
2019-05-19T20:16:24.136Z,990.79
2019-05-19T20:17:23.158Z,990.76
2019-05-19T20:18:23.411Z,990.77
2019-05-19T20:19:23.651Z,990.8
2019-05-19T20:20:24.134Z,990.79
2019-05-19T20:21:21.473Z,990.85
2019-05-19T20:22:20.971Z,990.82
2019-05-19T20:23:20.389Z,990.82
2019-05-19T20:24:20.448Z,990.88
2019-05-19T20:25:19.164Z,990.84
2019-05-19T20:26:17.907Z,990.9
2019-05-19T20:27:17.080Z,990.92
2019-05-19T20:28:16.273Z,990.89
2019-05-19T20:29:14.708Z,990.83
2019-05-19T20:30:13.483Z,990.89
2019-05-19T20:31:12.596Z,990.91
2019-05-19T20:32:11.436Z,990.91
2019-05-19T20:33:10.189Z,990.91
2019-05-19T20:34:10.334Z,990.87
2019-05-19T20:35:09.133Z,990.91
2019-05-19T20:36:07.934Z,990.9
2019-05-19T20:37:06.744Z,990.95
2019-05-19T20:38:05.828Z,990.91
2019-05-19T20:39:04.295Z,990.91
2019-05-19T20:40:04.087Z,990.91
2019-05-19T20:41:02.824Z,990.93
2019-05-19T20:42:02.371Z,990.92
2019-05-19T20:43:00.722Z,990.91
2019-05-19T20:43:59.304Z,990.95
2019-05-19T20:44:57.913Z,990.95
2019-05-19T20:45:57.487Z,990.93
2019-05-19T20:46:56.530Z,990.94
2019-05-19T20:47:55.682Z,990.96
2019-05-19T20:48:54.294Z,990.9
2019-05-19T20:49:53.019Z,990.91
2019-05-19T20:50:51.968Z,990.87
2019-05-19T20:51:50.752Z,990.83
2019-05-19T20:52:49.459Z,990.91
2019-05-19T20:53:48.468Z,990.95
2019-05-19T20:54:47.242Z,990.91
2019-05-19T20:55:46.186Z,990.89
2019-05-19T20:56:44.798Z,990.87
2019-05-19T20:57:43.386Z,990.84
2019-05-19T20:58:42.103Z,990.8
2019-05-19T20:59:40.815Z,990.76
2019-05-19T21:00:49.744Z,990.77
2019-05-19T21:01:38.290Z,990.78
2019-05-19T21:02:37.016Z,990.76
2019-05-19T21:03:35.690Z,990.72
2019-05-19T21:04:34.857Z,990.73
2019-05-19T21:05:33.552Z,990.72
2019-05-19T21:06:32.105Z,990.76
2019-05-19T21:07:30.864Z,990.74
2019-05-19T21:08:30.003Z,990.79
2019-05-19T21:09:28.597Z,990.79
2019-05-19T21:10:27.299Z,990.72
2019-05-19T21:11:25.991Z,990.71
2019-05-19T21:12:24.846Z,990.73
2019-05-19T21:13:23.378Z,990.69
2019-05-19T21:14:22.033Z,990.7
2019-05-19T21:15:20.878Z,990.66
2019-05-19T21:16:19.391Z,990.66
2019-05-19T21:17:18.159Z,990.63
2019-05-19T21:18:16.961Z,990.7
2019-05-19T21:19:15.557Z,990.74
2019-05-19T21:21:56.043Z,990.79
2019-05-19T21:22:54.952Z,990.76
2019-05-19T21:23:53.643Z,990.77
2019-05-19T21:26:28.656Z,990.82
2019-05-19T21:27:27.269Z,990.83
2019-05-19T21:28:25.850Z,990.8
2019-05-19T21:29:24.514Z,990.92
2019-05-19T21:30:23.166Z,990.91
2019-05-19T21:31:21.875Z,990.95
2019-05-19T21:32:20.496Z,990.94
2019-05-19T21:33:19.122Z,990.99
2019-05-19T21:34:17.689Z,991
2019-05-19T21:35:16.233Z,991.02
2019-05-19T21:36:14.835Z,991.03
2019-05-19T21:38:54.940Z,991.01
2019-05-19T21:39:53.696Z,991.01
2019-05-19T21:40:52.302Z,991.01
2019-05-19T21:41:51.002Z,991.06
2019-05-19T21:42:49.577Z,991.05
2019-05-19T21:43:48.298Z,991.09
2019-05-19T21:44:47.127Z,991.08
2019-05-19T21:45:45.737Z,991.1
2019-05-19T21:46:44.464Z,991.09
2019-05-19T21:47:43.330Z,991.16
2019-05-19T21:48:41.943Z,991.14
2019-05-19T21:49:40.546Z,991.16
2019-05-19T22:06:58.138Z,991.26
2019-05-19T22:07:56.960Z,991.33
2019-05-19T22:08:55.643Z,991.3
2019-05-19T22:09:54.777Z,991.27
2019-05-19T22:10:53.368Z,991.29
2019-05-19T22:11:51.923Z,991.31
2019-05-19T22:12:50.663Z,991.32
2019-05-19T22:13:49.296Z,991.39
2019-05-19T22:14:47.802Z,991.43
2019-05-19T22:15:46.679Z,991.45
2019-05-19T22:16:45.282Z,991.46
2019-05-19T22:17:43.921Z,991.45
2019-05-19T22:18:42.553Z,991.48
2019-05-19T22:19:41.182Z,991.48
2019-05-19T22:20:39.786Z,991.48
2019-05-19T22:21:38.833Z,991.53
2019-05-19T22:22:37.568Z,991.54
2019-05-19T22:23:36.859Z,991.52
2019-05-19T22:24:35.734Z,991.54
2019-05-19T22:25:34.462Z,991.55
2019-05-19T22:28:14.896Z,991.55
2019-05-19T22:29:13.467Z,991.53
2019-05-19T22:30:12.000Z,991.51
2019-05-19T22:31:10.849Z,991.51
2019-05-19T22:32:09.446Z,991.51
2019-05-19T22:33:08.013Z,991.55
2019-05-19T22:34:06.774Z,991.57
2019-05-19T22:35:05.489Z,991.59
2019-05-19T22:36:04.035Z,991.62
2019-05-19T22:37:02.585Z,991.63
2019-05-19T22:38:01.143Z,991.64
2019-05-19T22:38:59.746Z,991.62
2019-05-19T22:39:58.466Z,991.61
2019-05-19T22:40:57.294Z,991.59
2019-05-19T22:41:55.858Z,991.6
2019-05-19T22:42:54.547Z,991.62
2019-05-19T22:43:53.166Z,991.61
2019-05-19T22:44:51.798Z,991.56
2019-05-19T22:45:50.646Z,991.59
2019-05-19T22:46:49.287Z,991.51
2019-05-19T22:47:47.851Z,991.5
2019-05-19T22:48:46.649Z,991.49
2019-05-19T22:49:45.425Z,991.47
2019-05-19T22:50:44.118Z,991.46
2019-05-19T22:51:42.973Z,991.43
2019-05-19T22:52:41.745Z,991.45
2019-05-19T22:53:40.306Z,991.45
2019-05-19T22:54:38.988Z,991.43
2019-05-19T22:55:37.601Z,991.42
2019-05-19T22:56:36.216Z,991.42
2019-05-19T22:57:35.091Z,991.41
2019-05-19T22:58:33.666Z,991.32
2019-05-19T22:59:32.302Z,991.33
2019-05-19T23:00:30.911Z,991.33
2019-05-19T23:01:29.498Z,991.34
2019-05-19T23:02:28.062Z,991.32
2019-05-19T23:03:26.906Z,991.3
2019-05-19T23:04:25.464Z,991.28
2019-05-19T23:05:24.291Z,991.32
2019-05-19T23:06:22.861Z,991.27
2019-05-19T23:07:21.465Z,991.3
2019-05-19T23:08:20.032Z,991.28
2019-05-19T23:09:18.681Z,991.26
2019-05-19T23:10:17.232Z,991.31
2019-05-19T23:11:15.805Z,991.32
2019-05-19T23:12:14.535Z,991.27
2019-05-19T23:13:13.189Z,991.27
2019-05-19T23:14:11.827Z,991.3
2019-05-19T23:15:10.453Z,991.32
2019-05-19T23:16:09.129Z,991.31
2019-05-19T23:17:07.690Z,991.36
2019-05-19T23:18:06.561Z,991.31
2019-05-19T23:19:05.170Z,991.36
2019-05-19T23:20:03.721Z,991.32
2019-05-19T23:21:02.437Z,991.38
2019-05-19T23:22:01.042Z,991.29
2019-05-19T23:22:59.596Z,991.31
2019-05-19T23:23:58.178Z,991.3
2019-05-19T23:24:56.987Z,991.35
2019-05-19T23:25:55.528Z,991.37
2019-05-19T23:26:54.116Z,991.36
2019-05-19T23:27:52.748Z,991.31
2019-05-19T23:28:51.317Z,991.36
2019-05-19T23:29:49.898Z,991.35
2019-05-19T23:30:48.740Z,991.33
2019-05-19T23:31:47.348Z,991.39
2019-05-19T23:32:45.858Z,991.37
2019-05-19T23:33:44.382Z,991.41
2019-05-19T23:34:42.927Z,991.4
2019-05-19T23:35:41.601Z,991.44
2019-05-19T23:36:40.383Z,991.41
2019-05-19T23:37:39.075Z,991.44
2019-05-19T23:38:37.648Z,991.45
2019-05-19T23:39:36.426Z,991.46
2019-05-19T23:40:34.978Z,991.41
2019-05-19T23:41:33.578Z,991.39
2019-05-19T23:42:32.225Z,991.37
2019-05-19T23:43:30.832Z,991.34
2019-05-19T23:44:29.467Z,991.36
2019-05-19T23:45:28.010Z,991.41
2019-05-19T23:46:26.834Z,991.44
2019-05-19T23:47:25.390Z,991.41
2019-05-19T23:48:24.042Z,991.42
2019-05-19T23:49:22.650Z,991.43
2019-05-19T23:50:21.227Z,991.46
2019-05-19T23:51:19.815Z,991.47
2019-05-19T23:52:18.682Z,991.46
2019-05-19T23:53:17.351Z,991.45
2019-05-19T23:54:16.132Z,991.46
2019-05-19T23:55:14.804Z,991.44
2019-05-19T23:56:13.348Z,991.41
2019-05-19T23:57:11.902Z,991.51
2019-05-19T23:58:10.647Z,991.45
2019-05-19T23:59:09.233Z,991.46
